sensor_id;sensor_type;location;lat;lon;timestamp;pressure;altitude;pressure_sealevel;temperature;humidity
31299;BME280;17927;52.350;13.402;2023-07-09T00:00:21;101635.13;;;26.25;31.23
31299;BME280;17927;52.350;13.402;2023-07-09T00:02:48;101636.91;;;26.20;31.29
31299;BME280;17927;52.350;13.402;2023-07-09T00:05:15;101642.66;;;26.18;31.25
31299;BME280;17927;52.350;13.402;2023-07-09T00:07:41;101654.41;;;26.13;31.28
31299;BME280;17927;52.350;13.402;2023-07-09T00:10:15;101652.03;;;26.10;31.45
31299;BME280;17927;52.350;13.402;2023-07-09T00:12:40;101658.06;;;26.07;31.41
31299;BME280;17927;52.350;13.402;2023-07-09T00:15:06;101642.97;;;26.03;31.33
31299;BME280;17927;52.350;13.402;2023-07-09T00:17:35;101654.47;;;26.00;31.68
31299;BME280;17927;52.350;13.402;2023-07-09T00:20:01;101652.41;;;25.95;31.99
31299;BME280;17927;52.350;13.402;2023-07-09T00:22:26;101649.22;;;25.92;31.69
31299;BME280;17927;52.350;13.402;2023-07-09T00:24:54;101647.97;;;25.88;31.88
31299;BME280;17927;52.350;13.402;2023-07-09T00:27:23;101648.19;;;25.86;32.20
31299;BME280;17927;52.350;13.402;2023-07-09T00:29:52;101649.72;;;25.82;32.31
31299;BME280;17927;52.350;13.402;2023-07-09T00:32:20;101643.78;;;25.78;32.41
31299;BME280;17927;52.350;13.402;2023-07-09T00:34:48;101653.38;;;25.76;32.31
31299;BME280;17927;52.350;13.402;2023-07-09T00:37:15;101655.50;;;25.74;32.57
31299;BME280;17927;52.350;13.402;2023-07-09T00:39:41;101655.56;;;25.67;32.79
31299;BME280;17927;52.350;13.402;2023-07-09T00:42:15;101649.00;;;25.61;33.01
31299;BME280;17927;52.350;13.402;2023-07-09T00:44:44;101646.28;;;25.54;32.68
31299;BME280;17927;52.350;13.402;2023-07-09T00:47:43;101647.38;;;25.47;33.08
31299;BME280;17927;52.350;13.402;2023-07-09T00:53:18;101648.69;;;25.31;33.10
31299;BME280;17927;52.350;13.402;2023-07-09T00:55:51;101646.41;;;25.28;33.31
31299;BME280;17927;52.350;13.402;2023-07-09T00:58:17;101643.84;;;25.26;33.27
31299;BME280;17927;52.350;13.402;2023-07-09T01:00:46;101646.81;;;25.24;33.22
31299;BME280;17927;52.350;13.402;2023-07-09T01:03:18;101633.88;;;25.18;33.51
31299;BME280;17927;52.350;13.402;2023-07-09T01:05:46;101626.88;;;25.16;33.71
31299;BME280;17927;52.350;13.402;2023-07-09T01:08:17;101630.06;;;25.13;33.68
31299;BME280;17927;52.350;13.402;2023-07-09T01:10:42;101633.28;;;25.09;33.71
31299;BME280;17927;52.350;13.402;2023-07-09T01:13:07;101635.88;;;25.04;33.94
31299;BME280;17927;52.350;13.402;2023-07-09T01:15:33;101629.06;;;25.00;33.95
31299;BME280;17927;52.350;13.402;2023-07-09T01:17:59;101638.66;;;24.98;34.22
31299;BME280;17927;52.350;13.402;2023-07-09T01:20:26;101640.16;;;24.93;34.15
31299;BME280;17927;52.350;13.402;2023-07-09T01:22:51;101639.94;;;24.88;34.21
31299;BME280;17927;52.350;13.402;2023-07-09T01:25:20;101628.50;;;24.85;34.39
31299;BME280;17927;52.350;13.402;2023-07-09T01:27:46;101629.78;;;24.82;34.65
31299;BME280;17927;52.350;13.402;2023-07-09T01:30:15;101633.81;;;24.80;34.61
31299;BME280;17927;52.350;13.402;2023-07-09T01:32:40;101636.38;;;24.74;34.30
31299;BME280;17927;52.350;13.402;2023-07-09T01:35:11;101628.72;;;24.70;34.83
31299;BME280;17927;52.350;13.402;2023-07-09T01:37:37;101622.75;;;24.66;34.88
31299;BME280;17927;52.350;13.402;2023-07-09T01:40:04;101621.50;;;24.62;35.01
31299;BME280;17927;52.350;13.402;2023-07-09T01:42:30;101627.66;;;24.57;34.86
31299;BME280;17927;52.350;13.402;2023-07-09T01:44:56;101624.28;;;24.55;34.97
31299;BME280;17927;52.350;13.402;2023-07-09T01:47:22;101628.56;;;24.51;35.06
31299;BME280;17927;52.350;13.402;2023-07-09T01:49:49;101631.72;;;24.48;34.86
31299;BME280;17927;52.350;13.402;2023-07-09T01:52:15;101626.63;;;24.45;35.26
31299;BME280;17927;52.350;13.402;2023-07-09T01:54:42;101627.28;;;24.40;35.01
31299;BME280;17927;52.350;13.402;2023-07-09T01:57:23;101632.41;;;24.37;35.28
31299;BME280;17927;52.350;13.402;2023-07-09T01:59:53;101631.94;;;24.33;35.39
31299;BME280;17927;52.350;13.402;2023-07-09T02:02:19;101630.50;;;24.10;35.24
31299;BME280;17927;52.350;13.402;2023-07-09T02:04:46;101639.19;;;24.14;35.14
31299;BME280;17927;52.350;13.402;2023-07-09T02:07:12;101627.50;;;24.18;35.20
31299;BME280;17927;52.350;13.402;2023-07-09T02:09:38;101630.91;;;24.21;35.56
31299;BME280;17927;52.350;13.402;2023-07-09T02:12:03;101631.78;;;24.21;35.34
31299;BME280;17927;52.350;13.402;2023-07-09T02:14:29;101633.66;;;24.21;35.82
31299;BME280;17927;52.350;13.402;2023-07-09T02:16:54;101634.94;;;24.18;35.98
31299;BME280;17927;52.350;13.402;2023-07-09T02:19:20;101635.16;;;24.16;36.15
31299;BME280;17927;52.350;13.402;2023-07-09T02:21:45;101638.56;;;24.12;35.88
31299;BME280;17927;52.350;13.402;2023-07-09T02:24:10;101643.44;;;24.10;36.29
31299;BME280;17927;52.350;13.402;2023-07-09T02:26:36;101642.19;;;24.06;36.34
31299;BME280;17927;52.350;13.402;2023-07-09T02:29:01;101637.72;;;24.05;36.73
31299;BME280;17927;52.350;13.402;2023-07-09T02:31:26;101640.88;;;24.01;36.50
31299;BME280;17927;52.350;13.402;2023-07-09T02:33:55;101647.47;;;24.00;36.37
31299;BME280;17927;52.350;13.402;2023-07-09T02:36:20;101644.06;;;23.98;36.67
31299;BME280;17927;52.350;13.402;2023-07-09T02:38:45;101643.81;;;23.93;37.03
31299;BME280;17927;52.350;13.402;2023-07-09T02:41:10;101643.16;;;23.91;36.67
31299;BME280;17927;52.350;13.402;2023-07-09T02:43:36;101643.81;;;23.86;36.85
31299;BME280;17927;52.350;13.402;2023-07-09T02:46:01;101644.22;;;23.83;36.88
31299;BME280;17927;52.350;13.402;2023-07-09T02:48:26;101641.69;;;23.82;37.56
31299;BME280;17927;52.350;13.402;2023-07-09T02:50:51;101642.31;;;23.77;37.48
31299;BME280;17927;52.350;13.402;2023-07-09T02:53:17;101644.84;;;23.72;37.79
31299;BME280;17927;52.350;13.402;2023-07-09T02:55:42;101648.25;;;23.67;38.15
31299;BME280;17927;52.350;13.402;2023-07-09T02:58:07;101638.91;;;23.62;38.29
31299;BME280;17927;52.350;13.402;2023-07-09T03:00:32;101646.94;;;23.56;38.26
31299;BME280;17927;52.350;13.402;2023-07-09T03:02:58;101636.53;;;23.52;38.79
31299;BME280;17927;52.350;13.402;2023-07-09T03:05:23;101637.16;;;23.47;38.82
31299;BME280;17927;52.350;13.402;2023-07-09T03:07:48;101646.06;;;23.42;38.69
31299;BME280;17927;52.350;13.402;2023-07-09T03:10:13;101646.66;;;23.38;39.21
31299;BME280;17927;52.350;13.402;2023-07-09T03:12:39;101646.44;;;23.33;38.94
31299;BME280;17927;52.350;13.402;2023-07-09T03:15:04;101645.16;;;23.29;39.40
31299;BME280;17927;52.350;13.402;2023-07-09T03:17:30;101645.56;;;23.25;39.44
31299;BME280;17927;52.350;13.402;2023-07-09T03:19:55;101645.78;;;23.24;39.27
31299;BME280;17927;52.350;13.402;2023-07-09T03:22:20;101641.69;;;23.20;39.67
31299;BME280;17927;52.350;13.402;2023-07-09T03:24:46;101636.41;;;23.18;39.44
31299;BME280;17927;52.350;13.402;2023-07-09T03:27:11;101640.41;;;23.16;39.16
31299;BME280;17927;52.350;13.402;2023-07-09T03:29:36;101649.72;;;23.15;39.69
31299;BME280;17927;52.350;13.402;2023-07-09T03:32:01;101645.47;;;23.12;39.95
31299;BME280;17927;52.350;13.402;2023-07-09T03:34:27;101645.25;;;23.14;39.47
31299;BME280;17927;52.350;13.402;2023-07-09T03:36:52;101646.31;;;23.12;39.83
31299;BME280;17927;52.350;13.402;2023-07-09T03:39:17;101641.69;;;23.13;39.39
31299;BME280;17927;52.350;13.402;2023-07-09T03:41:42;101646.13;;;23.14;39.86
31299;BME280;17927;52.350;13.402;2023-07-09T03:44:07;101646.97;;;23.15;39.58
31299;BME280;17927;52.350;13.402;2023-07-09T03:46:33;101658.63;;;23.17;39.75
31299;BME280;17927;52.350;13.402;2023-07-09T03:48:59;101651.88;;;23.19;39.88
31299;BME280;17927;52.350;13.402;2023-07-09T03:51:24;101659.09;;;23.20;39.75
31299;BME280;17927;52.350;13.402;2023-07-09T03:53:50;101650.44;;;23.23;39.90
31299;BME280;17927;52.350;13.402;2023-07-09T03:56:15;101658.28;;;23.26;39.77
31299;BME280;17927;52.350;13.402;2023-07-09T03:58:40;101659.78;;;23.29;40.10
31299;BME280;17927;52.350;13.402;2023-07-09T04:01:06;101661.06;;;23.33;39.79
31299;BME280;17927;52.350;13.402;2023-07-09T04:03:31;101660.44;;;23.38;39.61
31299;BME280;17927;52.350;13.402;2023-07-09T04:05:56;101672.75;;;23.42;40.13
31299;BME280;17927;52.350;13.402;2023-07-09T04:08:22;101676.81;;;23.46;39.82
31299;BME280;17927;52.350;13.402;2023-07-09T04:10:47;101675.34;;;23.50;40.10
31299;BME280;17927;52.350;13.402;2023-07-09T04:13:12;101664.75;;;23.54;39.67
31299;BME280;17927;52.350;13.402;2023-07-09T04:15:38;101670.47;;;23.59;39.72
31299;BME280;17927;52.350;13.402;2023-07-09T04:18:03;101683.44;;;23.65;39.77
31299;BME280;17927;52.350;13.402;2023-07-09T04:20:28;101674.53;;;23.70;39.95
31299;BME280;17927;52.350;13.402;2023-07-09T04:22:53;101683.03;;;23.75;39.83
31299;BME280;17927;52.350;13.402;2023-07-09T04:25:19;101675.00;;;23.80;39.85
31299;BME280;17927;52.350;13.402;2023-07-09T04:27:44;101683.06;;;23.88;39.60
31299;BME280;17927;52.350;13.402;2023-07-09T04:30:12;101677.56;;;23.95;39.65
31299;BME280;17927;52.350;13.402;2023-07-09T04:32:37;101681.22;;;24.02;39.82
31299;BME280;17927;52.350;13.402;2023-07-09T04:35:03;101674.66;;;24.10;40.19
31299;BME280;17927;52.350;13.402;2023-07-09T04:37:31;101678.06;;;24.19;40.07
31299;BME280;17927;52.350;13.402;2023-07-09T04:39:57;101671.66;;;24.25;40.11
31299;BME280;17927;52.350;13.402;2023-07-09T04:42:22;101682.69;;;24.32;39.83
31299;BME280;17927;52.350;13.402;2023-07-09T04:44:47;101674.41;;;24.39;39.82
31299;BME280;17927;52.350;13.402;2023-07-09T04:47:12;101675.28;;;24.46;39.48
31299;BME280;17927;52.350;13.402;2023-07-09T04:49:38;101676.09;;;24.53;39.32
31299;BME280;17927;52.350;13.402;2023-07-09T04:52:03;101674.44;;;24.59;39.49
31299;BME280;17927;52.350;13.402;2023-07-09T04:54:29;101676.13;;;24.67;39.32
31299;BME280;17927;52.350;13.402;2023-07-09T04:56:55;101669.53;;;24.74;39.13
31299;BME280;17927;52.350;13.402;2023-07-09T04:59:21;101676.75;;;24.82;39.32
31299;BME280;17927;52.350;13.402;2023-07-09T05:01:46;101678.00;;;24.86;39.31
31299;BME280;17927;52.350;13.402;2023-07-09T05:04:11;101669.91;;;24.91;39.61
31299;BME280;17927;52.350;13.402;2023-07-09T05:06:37;101674.59;;;24.98;39.13
31299;BME280;17927;52.350;13.402;2023-07-09T05:09:02;101678.16;;;25.05;39.07
31299;BME280;17927;52.350;13.402;2023-07-09T05:11:27;101684.53;;;25.12;38.80
31299;BME280;17927;52.350;13.402;2023-07-09T05:13:52;101683.44;;;25.20;38.90
31299;BME280;17927;52.350;13.402;2023-07-09T05:16:18;101685.94;;;25.28;38.76
31299;BME280;17927;52.350;13.402;2023-07-09T05:18:45;101679.09;;;25.37;38.98
31299;BME280;17927;52.350;13.402;2023-07-09T05:21:10;101690.78;;;25.46;38.33
31299;BME280;17927;52.350;13.402;2023-07-09T05:23:35;101691.38;;;25.55;38.44
31299;BME280;17927;52.350;13.402;2023-07-09T05:26:02;101688.13;;;25.65;38.61
31299;BME280;17927;52.350;13.402;2023-07-09T05:28:28;101687.25;;;25.71;38.03
31299;BME280;17927;52.350;13.402;2023-07-09T05:30:54;101696.34;;;25.78;37.85
31299;BME280;17927;52.350;13.402;2023-07-09T05:33:19;101688.47;;;25.82;38.19
31299;BME280;17927;52.350;13.402;2023-07-09T05:35:45;101691.19;;;25.89;37.91
31299;BME280;17927;52.350;13.402;2023-07-09T05:38:14;101685.81;;;25.94;37.64
31299;BME280;17927;52.350;13.402;2023-07-09T05:40:40;101697.69;;;26.01;37.76
31299;BME280;17927;52.350;13.402;2023-07-09T05:43:06;101692.09;;;26.08;37.63
31299;BME280;17927;52.350;13.402;2023-07-09T05:45:31;101694.03;;;26.14;37.55
31299;BME280;17927;52.350;13.402;2023-07-09T05:47:58;101684.59;;;26.22;37.34
31299;BME280;17927;52.350;13.402;2023-07-09T05:50:24;101690.91;;;26.29;37.52
31299;BME280;17927;52.350;13.402;2023-07-09T05:52:49;101690.63;;;26.37;37.41
31299;BME280;17927;52.350;13.402;2023-07-09T05:55:14;101687.34;;;26.47;37.52
31299;BME280;17927;52.350;13.402;2023-07-09T05:57:40;101682.34;;;26.56;37.45
31299;BME280;17927;52.350;13.402;2023-07-09T06:00:05;101684.84;;;26.64;37.69
31299;BME280;17927;52.350;13.402;2023-07-09T06:02:33;101686.22;;;26.73;37.97
31299;BME280;17927;52.350;13.402;2023-07-09T06:04:58;101691.28;;;26.83;37.68
31299;BME280;17927;52.350;13.402;2023-07-09T06:07:23;101687.34;;;26.91;37.52
31299;BME280;17927;52.350;13.402;2023-07-09T06:09:49;101687.91;;;27.00;37.14
31299;BME280;17927;52.350;13.402;2023-07-09T06:12:14;101694.22;;;27.07;37.17
31299;BME280;17927;52.350;13.402;2023-07-09T06:14:39;101694.97;;;27.14;36.57
31299;BME280;17927;52.350;13.402;2023-07-09T06:17:04;101690.22;;;27.22;36.59
31299;BME280;17927;52.350;13.402;2023-07-09T06:19:30;101685.19;;;27.30;36.72
31299;BME280;17927;52.350;13.402;2023-07-09T06:21:55;101687.41;;;27.40;37.12
31299;BME280;17927;52.350;13.402;2023-07-09T06:24:21;101694.34;;;27.49;36.54
31299;BME280;17927;52.350;13.402;2023-07-09T06:26:47;101687.63;;;27.57;36.71
31299;BME280;17927;52.350;13.402;2023-07-09T06:29:12;101690.06;;;27.65;36.42
31299;BME280;17927;52.350;13.402;2023-07-09T06:31:37;101695.31;;;27.74;36.53
31299;BME280;17927;52.350;13.402;2023-07-09T06:34:05;101693.03;;;27.83;36.50
31299;BME280;17927;52.350;13.402;2023-07-09T06:36:32;101695.25;;;27.92;35.98
31299;BME280;17927;52.350;13.402;2023-07-09T06:38:57;101700.44;;;28.01;36.33
31299;BME280;17927;52.350;13.402;2023-07-09T06:41:23;101702.69;;;28.10;36.08
31299;BME280;17927;52.350;13.402;2023-07-09T06:43:49;101701.50;;;28.18;35.92
31299;BME280;17927;52.350;13.402;2023-07-09T06:46:14;101705.59;;;28.27;35.91
31299;BME280;17927;52.350;13.402;2023-07-09T06:48:40;101708.03;;;28.36;35.71
31299;BME280;17927;52.350;13.402;2023-07-09T06:51:05;101697.63;;;28.43;36.49
31299;BME280;17927;52.350;13.402;2023-07-09T06:53:31;101711.19;;;28.51;36.06
31299;BME280;17927;52.350;13.402;2023-07-09T06:55:57;101707.44;;;28.57;36.05
31299;BME280;17927;52.350;13.402;2023-07-09T06:58:25;101710.69;;;28.66;35.69
31299;BME280;17927;52.350;13.402;2023-07-09T07:00:53;101705.03;;;28.73;35.96
31299;BME280;17927;52.350;13.402;2023-07-09T07:03:18;101715.56;;;28.83;35.88
31299;BME280;17927;52.350;13.402;2023-07-09T07:05:45;101712.66;;;28.90;35.77
31299;BME280;17927;52.350;13.402;2023-07-09T07:08:10;101712.50;;;28.96;35.44
31299;BME280;17927;52.350;13.402;2023-07-09T07:10:36;101714.69;;;29.06;35.37
31299;BME280;17927;52.350;13.402;2023-07-09T07:13:01;101707.91;;;29.14;35.36
31299;BME280;17927;52.350;13.402;2023-07-09T07:15:27;101708.13;;;29.24;35.13
31299;BME280;17927;52.350;13.402;2023-07-09T07:17:52;101709.41;;;29.33;35.07
31299;BME280;17927;52.350;13.402;2023-07-09T07:20:18;101702.66;;;29.41;34.88
31299;BME280;17927;52.350;13.402;2023-07-09T07:22:43;101704.19;;;29.49;35.42
31299;BME280;17927;52.350;13.402;2023-07-09T07:25:09;101699.09;;;29.58;35.52
31299;BME280;17927;52.350;13.402;2023-07-09T07:27:35;101709.84;;;29.66;34.92
31299;BME280;17927;52.350;13.402;2023-07-09T07:30:01;101704.13;;;29.73;34.91
31299;BME280;17927;52.350;13.402;2023-07-09T07:32:26;101705.88;;;29.79;34.82
31299;BME280;17927;52.350;13.402;2023-07-09T07:34:51;101702.09;;;29.85;34.72
31299;BME280;17927;52.350;13.402;2023-07-09T07:37:20;101700.84;;;29.93;34.79
31299;BME280;17927;52.350;13.402;2023-07-09T07:39:46;101698.78;;;30.00;34.89
31299;BME280;17927;52.350;13.402;2023-07-09T07:42:11;101701.38;;;30.07;34.97
31299;BME280;17927;52.350;13.402;2023-07-09T07:44:37;101702.34;;;30.13;34.79
31299;BME280;17927;52.350;13.402;2023-07-09T07:47:02;101693.56;;;30.21;34.58
31299;BME280;17927;52.350;13.402;2023-07-09T07:49:28;101698.69;;;30.29;34.25
31299;BME280;17927;52.350;13.402;2023-07-09T07:51:53;101692.97;;;30.36;33.59
31299;BME280;17927;52.350;13.402;2023-07-09T07:54:18;101693.91;;;30.42;33.81
31299;BME280;17927;52.350;13.402;2023-07-09T07:56:44;101701.81;;;30.50;33.76
31299;BME280;17927;52.350;13.402;2023-07-09T07:59:09;101699.97;;;30.56;33.35
31299;BME280;17927;52.350;13.402;2023-07-09T08:01:34;101712.63;;;30.63;33.33
31299;BME280;17927;52.350;13.402;2023-07-09T08:04:04;101706.06;;;30.70;33.85
31299;BME280;17927;52.350;13.402;2023-07-09T08:06:30;101712.28;;;30.77;34.21
31299;BME280;17927;52.350;13.402;2023-07-09T08:08:56;101711.84;;;30.85;33.93
31299;BME280;17927;52.350;13.402;2023-07-09T08:11:22;101708.28;;;30.90;33.64
31299;BME280;17927;52.350;13.402;2023-07-09T08:13:47;101700.81;;;30.95;34.07
31299;BME280;17927;52.350;13.402;2023-07-09T08:16:12;101710.38;;;30.99;33.73
31299;BME280;17927;52.350;13.402;2023-07-09T08:18:38;101703.19;;;31.04;33.91
31299;BME280;17927;52.350;13.402;2023-07-09T08:21:03;101706.03;;;31.09;33.69
31299;BME280;17927;52.350;13.402;2023-07-09T08:23:29;101702.50;;;31.13;33.83
31299;BME280;17927;52.350;13.402;2023-07-09T08:25:58;101702.03;;;31.22;33.08
31299;BME280;17927;52.350;13.402;2023-07-09T08:28:23;101703.53;;;31.29;33.11
31299;BME280;17927;52.350;13.402;2023-07-09T08:30:52;101704.19;;;31.37;33.35
31299;BME280;17927;52.350;13.402;2023-07-09T08:33:18;101704.81;;;31.44;33.13
31299;BME280;17927;52.350;13.402;2023-07-09T08:35:43;101699.88;;;31.51;32.71
31299;BME280;17927;52.350;13.402;2023-07-09T08:38:09;101695.78;;;31.59;32.96
31299;BME280;17927;52.350;13.402;2023-07-09T08:40:39;101697.25;;;31.67;32.34
31299;BME280;17927;52.350;13.402;2023-07-09T08:43:15;101698.78;;;31.74;32.35
31299;BME280;17927;52.350;13.402;2023-07-09T08:46:07;101697.97;;;31.79;32.11
31299;BME280;17927;52.350;13.402;2023-07-09T08:48:36;101687.41;;;31.86;32.31
31299;BME280;17927;52.350;13.402;2023-07-09T08:51:13;101685.84;;;31.96;31.40
31299;BME280;17927;52.350;13.402;2023-07-09T08:53:49;101681.13;;;32.01;31.12
31299;BME280;17927;52.350;13.402;2023-07-09T08:56:16;101686.50;;;32.08;31.12
31299;BME280;17927;52.350;13.402;2023-07-09T08:58:42;101685.16;;;32.16;31.08
31299;BME280;17927;52.350;13.402;2023-07-09T09:01:18;101684.94;;;32.23;31.55
31299;BME280;17927;52.350;13.402;2023-07-09T09:03:48;101685.84;;;32.28;30.72
31299;BME280;17927;52.350;13.402;2023-07-09T09:06:16;101677.22;;;32.35;30.05
31299;BME280;17927;52.350;13.402;2023-07-09T09:08:56;101680.91;;;32.41;29.25
31299;BME280;17927;52.350;13.402;2023-07-09T09:11:37;101684.03;;;32.44;29.19
31299;BME280;17927;52.350;13.402;2023-07-09T09:14:18;101679.56;;;32.48;28.93
31299;BME280;17927;52.350;13.402;2023-07-09T09:16:45;101681.28;;;32.55;29.02
31299;BME280;17927;52.350;13.402;2023-07-09T09:19:33;101681.63;;;32.63;27.99
31299;BME280;17927;52.350;13.402;2023-07-09T09:22:05;101681.91;;;32.67;28.68
31299;BME280;17927;52.350;13.402;2023-07-09T09:24:35;101682.53;;;32.74;28.10
31299;BME280;17927;52.350;13.402;2023-07-09T09:27:02;101676.94;;;32.79;27.88
31299;BME280;17927;52.350;13.402;2023-07-09T09:29:27;101679.00;;;32.84;28.08
31299;BME280;17927;52.350;13.402;2023-07-09T09:31:57;101684.59;;;32.89;27.72
31299;BME280;17927;52.350;13.402;2023-07-09T09:34:28;101669.78;;;32.94;28.25
31299;BME280;17927;52.350;13.402;2023-07-09T09:36:58;101676.50;;;32.98;28.36
31299;BME280;17927;52.350;13.402;2023-07-09T09:39:24;101679.06;;;33.05;27.82
31299;BME280;17927;52.350;13.402;2023-07-09T09:41:53;101679.38;;;33.14;27.63
31299;BME280;17927;52.350;13.402;2023-07-09T09:44:25;101685.53;;;33.16;28.01
31299;BME280;17927;52.350;13.402;2023-07-09T09:46:51;101685.56;;;33.21;27.81
31299;BME280;17927;52.350;13.402;2023-07-09T09:49:16;101683.63;;;33.27;27.52
31299;BME280;17927;52.350;13.402;2023-07-09T09:51:45;101681.69;;;33.32;26.79
31299;BME280;17927;52.350;13.402;2023-07-09T09:54:17;101679.78;;;33.38;26.69
31299;BME280;17927;52.350;13.402;2023-07-09T09:56:43;101677.81;;;33.44;26.34
31299;BME280;17927;52.350;13.402;2023-07-09T09:59:20;101679.53;;;33.50;26.20
31299;BME280;17927;52.350;13.402;2023-07-09T10:01:47;101681.22;;;33.56;26.21
31299;BME280;17927;52.350;13.402;2023-07-09T10:04:18;101675.06;;;33.64;25.99
31299;BME280;17927;52.350;13.402;2023-07-09T10:06:48;101674.25;;;33.69;25.82
31299;BME280;17927;52.350;13.402;2023-07-09T10:09:43;101684.34;;;33.75;25.56
31299;BME280;17927;52.350;13.402;2023-07-09T10:12:25;101680.69;;;33.75;26.37
31299;BME280;17927;52.350;13.402;2023-07-09T10:15:01;101683.78;;;33.78;25.94
31299;BME280;17927;52.350;13.402;2023-07-09T10:17:49;101680.97;;;33.83;25.85
31299;BME280;17927;52.350;13.402;2023-07-09T10:20:24;101675.66;;;33.87;26.70
31299;BME280;17927;52.350;13.402;2023-07-09T10:22:55;101675.69;;;33.92;26.78
31299;BME280;17927;52.350;13.402;2023-07-09T10:30:47;101674.00;;;33.86;27.07
31299;BME280;17927;52.350;13.402;2023-07-09T10:33:28;101684.94;;;33.98;25.94
31299;BME280;17927;52.350;13.402;2023-07-09T10:36:24;101674.56;;;34.04;26.05
31299;BME280;17927;52.350;13.402;2023-07-09T10:39:02;101675.69;;;34.08;27.00
31299;BME280;17927;52.350;13.402;2023-07-09T10:41:29;101667.28;;;34.13;25.71
31299;BME280;17927;52.350;13.402;2023-07-09T10:44:06;101663.63;;;34.18;25.45
31299;BME280;17927;52.350;13.402;2023-07-09T10:46:39;101663.66;;;34.23;26.00
31299;BME280;17927;52.350;13.402;2023-07-09T10:49:10;101665.31;;;34.29;26.25
31299;BME280;17927;52.350;13.402;2023-07-09T10:51:40;101666.69;;;34.37;26.47
31299;BME280;17927;52.350;13.402;2023-07-09T10:54:19;101654.94;;;34.45;25.88
31299;BME280;17927;52.350;13.402;2023-07-09T10:56:48;101652.09;;;34.50;26.36
31299;BME280;17927;52.350;13.402;2023-07-09T10:59:26;101661.91;;;34.58;26.39
31299;BME280;17927;52.350;13.402;2023-07-09T11:02:17;101652.38;;;34.64;26.46
31299;BME280;17927;52.350;13.402;2023-07-09T11:04:50;101660.78;;;34.69;25.20
31299;BME280;17927;52.350;13.402;2023-07-09T11:07:23;101659.34;;;34.77;26.04
31299;BME280;17927;52.350;13.402;2023-07-09T11:09:51;101657.06;;;34.84;25.77
31299;BME280;17927;52.350;13.402;2023-07-09T11:12:27;101656.47;;;34.92;25.20
31299;BME280;17927;52.350;13.402;2023-07-09T11:15:03;101662.94;;;34.98;26.23
31299;BME280;17927;52.350;13.402;2023-07-09T11:17:30;101645.53;;;35.01;25.66
31299;BME280;17927;52.350;13.402;2023-07-09T11:19:58;101644.91;;;35.10;24.45
31299;BME280;17927;52.350;13.402;2023-07-09T11:22:35;101646.84;;;35.14;25.50
31299;BME280;17927;52.350;13.402;2023-07-09T11:25:07;101639.53;;;35.18;25.18
31299;BME280;17927;52.350;13.402;2023-07-09T11:27:51;101637.53;;;35.24;25.48
31299;BME280;17927;52.350;13.402;2023-07-09T11:30:23;101635.84;;;35.28;24.71
31299;BME280;17927;52.350;13.402;2023-07-09T11:32:59;101627.66;;;35.37;24.46
31299;BME280;17927;52.350;13.402;2023-07-09T11:35:28;101620.59;;;35.45;24.40
31299;BME280;17927;52.350;13.402;2023-07-09T11:37:54;101621.94;;;35.53;24.82
31299;BME280;17927;52.350;13.402;2023-07-09T11:40:22;101616.56;;;35.61;24.01
31299;BME280;17927;52.350;13.402;2023-07-09T11:42:54;101617.91;;;35.69;24.43
31299;BME280;17927;52.350;13.402;2023-07-09T11:45:24;101612.75;;;35.76;24.66
31299;BME280;17927;52.350;13.402;2023-07-09T11:47:55;101618.03;;;35.83;23.83
31299;BME280;17927;52.350;13.402;2023-07-09T11:50:32;101622.19;;;35.91;23.79
31299;BME280;17927;52.350;13.402;2023-07-09T11:53:01;101611.69;;;35.72;24.49
31299;BME280;17927;52.350;13.402;2023-07-09T11:55:33;101615.75;;;35.90;24.93
31299;BME280;17927;52.350;13.402;2023-07-09T11:58:03;101610.31;;;36.04;25.01
31299;BME280;17927;52.350;13.402;2023-07-09T12:00:37;101611.03;;;36.15;24.50
31299;BME280;17927;52.350;13.402;2023-07-09T12:03:04;101615.16;;;36.23;25.02
31299;BME280;17927;52.350;13.402;2023-07-09T12:05:29;101609.44;;;36.33;24.43
31299;BME280;17927;52.350;13.402;2023-07-09T12:07:56;101611.59;;;36.41;24.18
31299;BME280;17927;52.350;13.402;2023-07-09T12:10:27;101606.78;;;36.47;23.85
31299;BME280;17927;52.350;13.402;2023-07-09T12:12:55;101598.84;;;36.54;23.87
31299;BME280;17927;52.350;13.402;2023-07-09T12:15:26;101595.34;;;36.63;23.95
31299;BME280;17927;52.350;13.402;2023-07-09T12:17:57;101589.66;;;36.68;23.14
31299;BME280;17927;52.350;13.402;2023-07-09T12:20:23;101595.22;;;36.73;23.61
31299;BME280;17927;52.350;13.402;2023-07-09T12:22:48;101591.50;;;36.78;23.12
31299;BME280;17927;52.350;13.402;2023-07-09T12:25:20;101583.81;;;36.83;23.24
31299;BME280;17927;52.350;13.402;2023-07-09T12:27:46;101585.13;;;36.91;22.94
31299;BME280;17927;52.350;13.402;2023-07-09T12:30:12;101574.06;;;37.00;23.30
31299;BME280;17927;52.350;13.402;2023-07-09T12:32:48;101590.50;;;37.12;22.94
31299;BME280;17927;52.350;13.402;2023-07-09T12:35:19;101580.44;;;37.25;23.92
31299;BME280;17927;52.350;13.402;2023-07-09T12:37:47;101583.19;;;37.49;24.20
31299;BME280;17927;52.350;13.402;2023-07-09T12:40:21;101584.88;;;37.83;22.90
31299;BME280;17927;52.350;13.402;2023-07-09T12:42:46;101582.25;;;38.20;23.37
31299;BME280;17927;52.350;13.402;2023-07-09T12:45:17;101576.81;;;38.65;22.90
31299;BME280;17927;52.350;13.402;2023-07-09T12:47:45;101569.88;;;39.13;22.76
31299;BME280;17927;52.350;13.402;2023-07-09T12:50:30;101566.00;;;39.69;22.00
31299;BME280;17927;52.350;13.402;2023-07-09T12:53:01;101566.09;;;40.18;21.85